Time;durP1;ratioP1;P1;durP2;ratioP2;P2;SDS_P1;SDS_P2;PMS_P1;PMS_P2;Temp;Humidity;BMP_temperature;BMP_pressure;BME280_temperature;BME280_humidity;BME280_pressure;Samples;Min_cycle;Max_cycle;Signal;HPM_P1;HPM_P2
2022/11/25 00:01:22;;;;;;;12.20;2.55;;;7.30;99.90;;;;;;5019223;28;20120;-77
2022/11/25 00:03:48;;;;;;;5.97;2.15;;;7.30;99.90;;;;;;5024128;28;20038;-77
2022/11/25 00:06:19;;;;;;;5.72;2.58;;;7.30;99.90;;;;;;5022826;28;20034;-77
2022/11/25 00:08:47;;;;;;;3.13;1.98;;;7.30;99.90;;;;;;5040551;28;20029;-77
2022/11/25 00:11:14;;;;;;;3.75;1.73;;;7.30;99.90;;;;;;5037778;28;20109;-78
2022/11/25 00:13:41;;;;;;;3.97;1.77;;;7.30;99.90;;;;;;5021209;28;20044;-78
2022/11/25 00:16:12;;;;;;;3.45;1.80;;;7.30;99.90;;;;;;5044172;28;20045;-78
2022/11/25 00:18:38;;;;;;;4.80;2.08;;;7.30;99.90;;;;;;5043984;28;20036;-78
2022/11/25 00:21:06;;;;;;;6.40;2.17;;;7.30;99.90;;;;;;5025530;28;20029;-78
2022/11/25 00:23:32;;;;;;;3.33;1.90;;;7.30;99.90;;;;;;5023096;28;20033;-79
2022/11/25 00:26:23;;;;;;;3.78;1.85;;;7.40;99.90;;;;;;5019733;28;20037;-80
2022/11/25 00:28:50;;;;;;;2.75;1.70;;;7.40;99.90;;;;;;5022817;28;20026;-80
2022/11/25 00:31:22;;;;;;;4.75;2.03;;;7.40;99.90;;;;;;5022489;28;20035;-80
2022/11/25 00:33:48;;;;;;;4.80;1.80;;;7.40;99.90;;;;;;5040302;28;20529;-80
2022/11/25 00:36:16;;;;;;;5.13;2.10;;;7.50;99.90;;;;;;5040895;28;20117;-80
2022/11/25 00:38:43;;;;;;;3.70;1.95;;;7.50;99.90;;;;;;5023000;28;20032;-80
2022/11/25 00:46:37;;;;;;;2.72;1.90;;;7.50;99.90;;;;;;5042738;28;20037;-80
2022/11/25 00:49:02;;;;;;;3.70;1.73;;;7.40;99.90;;;;;;5024442;28;20025;-80
2022/11/25 00:51:28;;;;;;;4.35;1.70;;;7.40;99.90;;;;;;5026684;28;20045;-80
2022/11/25 00:53:54;;;;;;;5.78;1.80;;;7.40;99.90;;;;;;5046739;28;20385;-80
2022/11/25 00:56:21;;;;;;;5.10;1.80;;;7.40;99.90;;;;;;5046477;28;20080;-80
2022/11/25 00:58:47;;;;;;;3.25;1.63;;;7.40;99.90;;;;;;5044600;28;20083;-80
2022/11/25 01:01:13;;;;;;;3.28;1.58;;;7.30;99.90;;;;;;5024397;28;20029;-80
2022/11/25 01:03:39;;;;;;;5.80;1.83;;;7.30;99.90;;;;;;5046551;28;20168;-82
2022/11/25 01:06:07;;;;;;;4.82;2.08;;;7.30;99.90;;;;;;5039045;28;20029;-85
2022/11/25 01:08:36;;;;;;;4.15;2.22;;;7.20;99.90;;;;;;5057859;28;20077;-84
2022/11/25 01:11:05;;;;;;;5.25;2.67;;;7.10;99.90;;;;;;5041955;28;20033;-84
2022/11/25 01:13:31;;;;;;;7.75;3.67;;;7.10;99.90;;;;;;5039689;28;20032;-82
2022/11/25 01:15:59;;;;;;;8.05;2.33;;;7.00;99.90;;;;;;5056378;28;20036;-83
2022/11/25 01:18:26;;;;;;;4.55;2.30;;;6.90;99.90;;;;;;5043924;28;20014;-85
2022/11/25 01:44:21;;;;;;;4.55;2.95;;;6.10;99.90;;;;;;5342889;23;20057;-82
2022/11/25 01:47:10;;;;;;;5.50;2.88;;;5.90;99.90;;;;;;5074818;28;20028;-82
2022/11/25 01:49:52;;;;;;;8.20;2.80;;;5.90;99.90;;;;;;5044592;28;20033;-81
2022/11/25 01:52:42;;;;;;;3.42;2.67;;;5.80;99.90;;;;;;5072855;28;20056;-81
2022/11/25 01:55:15;;;;;;;7.45;2.88;;;5.80;99.90;;;;;;5072219;28;20055;-81
2022/11/25 01:57:49;;;;;;;6.38;2.40;;;5.80;99.90;;;;;;5055904;28;20029;-82
2022/11/25 02:00:15;;;;;;;7.45;2.40;;;5.80;99.90;;;;;;5054549;28;20097;-81
2022/11/25 02:02:41;;;;;;;4.85;2.58;;;5.80;99.90;;;;;;5072414;28;20037;-82
2022/11/25 02:05:11;;;;;;;5.30;2.40;;;5.80;99.90;;;;;;5052043;28;20017;-82
2022/11/25 02:07:42;;;;;;;5.32;2.67;;;5.70;99.90;;;;;;5070515;28;20033;-81
2022/11/25 02:10:17;;;;;;;4.70;2.58;;;5.70;99.90;;;;;;5069862;28;20024;-81
2022/11/25 02:12:45;;;;;;;6.35;2.75;;;5.80;99.90;;;;;;5069284;28;20461;-81
2022/11/25 02:15:12;;;;;;;9.20;2.88;;;5.80;99.90;;;;;;5048952;28;20362;-81
2022/11/25 02:17:38;;;;;;;6.68;2.25;;;5.70;99.90;;;;;;5065746;28;20018;-80
2022/11/25 02:20:11;;;;;;;6.47;3.22;;;5.80;99.90;;;;;;5047095;28;20028;-81
2022/11/25 02:23:06;;;;;;;4.70;2.20;;;5.80;99.90;;;;;;5046582;28;20033;-81
2022/11/25 02:25:34;;;;;;;3.78;2.05;;;5.80;99.90;;;;;;5047234;28;20025;-81
2022/11/25 02:28:03;;;;;;;6.82;1.95;;;5.80;99.90;;;;;;5045641;28;20527;-81
2022/11/25 02:30:28;;;;;;;5.47;2.13;;;5.80;99.90;;;;;;5044492;28;20129;-80
2022/11/25 02:32:56;;;;;;;4.70;1.85;;;5.70;99.90;;;;;;5062199;28;20056;-81
2022/11/25 02:35:32;;;;;;;5.55;2.17;;;5.60;99.90;;;;;;5044809;28;20036;-80
2022/11/25 02:38:21;;;;;;;5.28;2.35;;;5.50;99.90;;;;;;5044182;28;20033;-80
2022/11/25 02:40:54;;;;;;;7.90;2.05;;;5.40;99.90;;;;;;5044855;28;20171;-80
2022/11/25 02:43:20;;;;;;;7.28;2.10;;;5.40;99.90;;;;;;5063141;28;20477;-81
2022/11/25 02:45:56;;;;;;;9.43;2.83;;;5.30;99.90;;;;;;5065412;28;20029;-81
2022/11/25 02:48:23;;;;;;;3.92;1.80;;;5.20;99.90;;;;;;5046020;28;20028;-80
2022/11/25 02:50:49;;;;;;;5.65;2.22;;;5.20;99.90;;;;;;5046827;28;20112;-81
2022/11/25 02:53:15;;;;;;;4.93;2.25;;;5.10;99.90;;;;;;5046005;28;20033;-80
2022/11/25 02:55:41;;;;;;;3.03;2.05;;;5.10;99.90;;;;;;5062491;28;20071;-80
2022/11/25 02:58:07;;;;;;;5.18;1.80;;;5.10;99.90;;;;;;5063418;28;20025;-81
2022/11/25 03:00:33;;;;;;;6.05;2.90;;;5.10;99.90;;;;;;5064968;28;20388;-81
2022/11/25 03:02:59;;;;;;;2.95;1.80;;;5.10;99.90;;;;;;5065097;28;20503;-80
2022/11/25 03:05:24;;;;;;;8.43;2.55;;;5.10;99.90;;;;;;5048241;28;20061;-80
2022/11/25 03:07:50;;;;;;;7.38;1.50;;;5.20;99.90;;;;;;5049862;28;20029;-81
2022/11/25 03:10:16;;;;;;;3.13;1.95;;;5.30;99.90;;;;;;5049303;28;20029;-81
2022/11/25 03:12:42;;;;;;;6.95;1.90;;;5.30;99.90;;;;;;5049122;28;20199;-80
2022/11/25 03:15:08;;;;;;;7.38;2.30;;;5.30;99.90;;;;;;5066263;28;20377;-80
2022/11/25 03:17:33;;;;;;;3.92;2.22;;;5.30;99.90;;;;;;5066594;28;20024;-81
2022/11/25 03:19:59;;;;;;;9.27;1.88;;;5.30;99.90;;;;;;5048946;28;20457;-81
2022/11/25 03:22:25;;;;;;;3.30;1.90;;;5.40;99.90;;;;;;5048628;28;20083;-80
2022/11/25 03:24:50;;;;;;;3.08;2.00;;;5.40;99.90;;;;;;5046864;28;20075;-80
2022/11/25 03:27:16;;;;;;;4.50;1.98;;;5.40;99.90;;;;;;5045743;28;20029;-80
2022/11/25 03:29:42;;;;;;;4.20;1.95;;;5.30;99.90;;;;;;5047077;28;20033;-80
2022/11/25 03:32:08;;;;;;;7.45;2.22;;;5.30;99.90;;;;;;5063172;28;20036;-80
2022/11/25 03:34:33;;;;;;;9.48;2.50;;;5.30;99.90;;;;;;5064505;28;20025;-80
2022/11/25 03:36:59;;;;;;;10.05;2.80;;;5.30;99.90;;;;;;5045968;28;20025;-81
2022/11/25 03:39:25;;;;;;;4.30;1.73;;;5.30;99.90;;;;;;5047453;28;20025;-80
2022/11/25 03:41:50;;;;;;;2.78;1.88;;;5.30;99.90;;;;;;5045500;28;20025;-80
2022/11/25 03:44:16;;;;;;;5.82;2.10;;;5.40;99.90;;;;;;5062965;28;20358;-80
2022/11/25 03:46:42;;;;;;;5.85;2.25;;;5.40;99.90;;;;;;5043190;28;20060;-79
2022/11/25 03:49:07;;;;;;;4.93;2.03;;;5.50;99.90;;;;;;5041029;28;20025;-80
2022/11/25 03:51:33;;;;;;;4.32;1.80;;;5.50;99.90;;;;;;5039194;28;20370;-80
2022/11/25 03:53:59;;;;;;;3.95;1.67;;;5.50;99.90;;;;;;5041765;28;20087;-80
2022/11/25 03:56:24;;;;;;;4.63;1.80;;;5.40;99.90;;;;;;5043269;28;20021;-80
2022/11/25 03:58:50;;;;;;;6.28;1.85;;;5.30;99.90;;;;;;5044814;28;20025;-81
2022/11/25 04:01:16;;;;;;;3.08;1.85;;;5.20;99.90;;;;;;5047865;28;20021;-81
2022/11/25 04:03:41;;;;;;;9.80;1.92;;;5.10;99.90;;;;;;5051757;28;20037;-81
2022/11/25 04:06:07;;;;;;;3.80;1.65;;;5.00;99.90;;;;;;5070069;28;20033;-81
2022/11/25 04:08:33;;;;;;;4.18;1.70;;;4.90;99.90;;;;;;5071327;28;20033;-81
2022/11/25 04:10:58;;;;;;;2.58;1.63;;;4.80;99.90;;;;;;5070616;28;20025;-81
2022/11/25 04:13:24;;;;;;;6.63;1.73;;;4.70;99.90;;;;;;5052560;28;20040;-81
2022/11/25 04:15:50;;;;;;;4.05;1.20;;;4.60;99.90;;;;;;5053180;28;20025;-81
2022/11/25 04:18:17;;;;;;;5.32;1.33;;;4.50;99.90;;;;;;5053141;28;20456;-81
2022/11/25 04:20:43;;;;;;;4.20;1.58;;;4.40;99.90;;;;;;5052903;28;20029;-81
2022/11/25 04:23:10;;;;;;;11.70;2.13;;;4.40;99.90;;;;;;5051967;28;20063;-81
2022/11/25 04:25:36;;;;;;;5.60;1.77;;;4.30;99.90;;;;;;5052761;28;20049;-81
2022/11/25 04:28:03;;;;;;;8.20;2.53;;;4.20;99.90;;;;;;5052805;28;20032;-81
2022/11/25 04:30:28;;;;;;;7.13;2.10;;;4.10;99.90;;;;;;5053310;28;20017;-82
2022/11/25 04:32:54;;;;;;;4.03;1.90;;;4.00;99.90;;;;;;5053406;28;20029;-82
2022/11/25 04:35:20;;;;;;;5.25;1.58;;;3.90;99.90;;;;;;5053057;28;20397;-81
2022/11/25 04:37:45;;;;;;;4.75;1.90;;;3.80;99.90;;;;;;5053166;28;20025;-81
2022/11/25 04:40:12;;;;;;;2.65;1.67;;;3.80;99.90;;;;;;5070736;28;20500;-81
2022/11/25 04:42:38;;;;;;;4.32;1.75;;;3.70;99.90;;;;;;5070301;28;20028;-81
2022/11/25 04:45:17;;;;;;;7.97;1.70;;;3.70;99.90;;;;;;5052870;28;20021;-81
2022/11/25 04:47:44;;;;;;;7.97;1.90;;;3.50;99.90;;;;;;5068839;28;20029;-81
2022/11/25 04:50:15;;;;;;;2.25;1.75;;;3.50;99.90;;;;;;5050487;28;20025;-80
2022/11/25 04:52:41;;;;;;;6.30;2.22;;;3.40;99.90;;;;;;5049085;28;20029;-81
2022/11/25 04:55:07;;;;;;;8.50;2.47;;;3.30;99.90;;;;;;5050318;28;20048;-81
2022/11/25 04:57:32;;;;;;;6.03;2.40;;;3.20;99.90;;;;;;5066742;28;20029;-80
2022/11/25 04:59:58;;;;;;;5.90;1.95;;;3.20;99.90;;;;;;5050199;28;20032;-80
2022/11/25 05:02:26;;;;;;;5.78;2.28;;;3.20;99.90;;;;;;5049472;28;20366;-81
2022/11/25 05:04:54;;;;;;;6.03;2.30;;;3.10;99.90;;;;;;5048602;28;20035;-80
2022/11/25 05:07:22;;;;;;;6.82;2.40;;;3.10;99.90;;;;;;5049207;28;20089;-79
2022/11/25 05:09:48;;;;;;;8.70;2.73;;;3.00;99.90;;;;;;5048251;28;20029;-79
2022/11/25 05:12:17;;;;;;;13.52;2.53;;;3.00;99.90;;;;;;5045417;28;20040;-77
2022/11/25 05:14:43;;;;;;;5.25;1.95;;;2.90;99.90;;;;;;5689583;23;20042;-73
2022/11/25 05:17:14;;;;;;;6.72;2.03;;;2.90;99.90;;;;;;5411127;23;20058;-83
2022/11/25 05:19:40;;;;;;;8.98;2.60;;;2.80;99.90;;;;;;5472141;23;20046;-78
2022/11/25 05:22:10;;;;;;;6.45;2.58;;;2.80;99.90;;;;;;5010496;28;20053;-78
2022/11/25 05:24:35;;;;;;;6.80;3.10;;;2.70;99.90;;;;;;5010475;28;20441;-81
2022/11/25 05:27:01;;;;;;;7.82;2.42;;;2.70;99.90;;;;;;5010152;28;20026;-81
2022/11/25 05:29:27;;;;;;;10.18;2.75;;;2.70;99.90;;;;;;5007934;28;20030;-79
2022/11/25 05:31:52;;;;;;;9.00;3.08;;;2.70;99.90;;;;;;5007015;28;20080;-80
2022/11/25 05:34:18;;;;;;;11.18;3.22;;;2.60;99.90;;;;;;5033039;28;20030;-80
2022/11/25 05:36:44;;;;;;;6.82;2.80;;;2.60;99.90;;;;;;5009251;28;20026;-81
2022/11/25 05:39:10;;;;;;;6.47;3.00;;;2.60;99.90;;;;;;5014302;28;20030;-81
2022/11/25 05:41:35;;;;;;;8.07;3.03;;;2.50;99.90;;;;;;5009992;28;20037;-80
2022/11/25 05:44:01;;;;;;;3.10;2.28;;;2.50;99.90;;;;;;5026859;28;20041;-80
2022/11/25 05:46:27;;;;;;;5.00;2.42;;;2.50;99.90;;;;;;5009745;28;20030;-74
2022/11/25 05:48:56;;;;;;;8.10;2.80;;;2.40;99.90;;;;;;5003341;28;20029;-74
2022/11/25 05:51:24;;;;;;;9.60;2.83;;;2.40;99.90;;;;;;5021637;28;20024;-73
2022/11/25 05:53:50;;;;;;;10.80;3.00;;;2.30;99.90;;;;;;5004174;28;20434;-74
2022/11/25 05:56:16;;;;;;;6.50;3.30;;;2.30;99.90;;;;;;5022890;28;20018;-74
2022/11/25 05:58:42;;;;;;;5.57;2.95;;;2.30;99.90;;;;;;5021763;28;20085;-74
2022/11/25 06:01:10;;;;;;;5.35;2.75;;;2.30;99.90;;;;;;5022741;28;20034;-74
2022/11/25 06:03:36;;;;;;;8.23;2.65;;;2.30;99.90;;;;;;5004154;28;20051;-74
2022/11/25 06:06:02;;;;;;;9.05;2.78;;;2.30;99.90;;;;;;5007158;28;20030;-74
2022/11/25 06:08:28;;;;;;;8.65;2.75;;;2.30;99.90;;;;;;5009245;28;20026;-74
2022/11/25 06:10:54;;;;;;;10.32;3.05;;;2.20;99.90;;;;;;5008913;28;20028;-74
2022/11/25 06:13:20;;;;;;;5.72;2.90;;;2.20;99.90;;;;;;5010346;28;20037;-74
2022/11/25 06:15:46;;;;;;;3.75;2.40;;;2.10;99.90;;;;;;5009706;28;20026;-74
2022/11/25 06:18:14;;;;;;;4.95;2.92;;;2.20;99.90;;;;;;5007642;28;20018;-74
2022/11/25 06:20:40;;;;;;;8.48;2.85;;;2.10;99.90;;;;;;5023981;28;20050;-73
2022/11/25 06:23:06;;;;;;;6.75;3.70;;;2.10;99.90;;;;;;5022402;28;20041;-73
2022/11/25 06:25:32;;;;;;;8.95;3.95;;;2.10;99.90;;;;;;5023615;28;20032;-73
2022/11/25 06:27:59;;;;;;;8.23;4.25;;;2.10;99.90;;;;;;5006642;28;20026;-73
2022/11/25 06:30:25;;;;;;;12.27;4.50;;;2.00;99.90;;;;;;5023657;28;20030;-73
2022/11/25 06:32:52;;;;;;;8.40;4.05;;;2.00;99.90;;;;;;5023248;28;20063;-74
2022/11/25 06:35:18;;;;;;;8.82;5.32;;;2.00;99.90;;;;;;5004987;28;20030;-73
2022/11/25 06:37:44;;;;;;;7.53;4.72;;;2.00;99.90;;;;;;5004158;28;20509;-73
2022/11/25 06:40:10;;;;;;;8.73;5.25;;;1.90;99.90;;;;;;5022959;28;20026;-73
2022/11/25 06:42:37;;;;;;;11.38;5.70;;;1.90;99.90;;;;;;5004718;28;20045;-73
2022/11/25 06:45:04;;;;;;;11.77;5.10;;;1.90;99.90;;;;;;5006763;28;20026;-73
2022/11/25 06:47:29;;;;;;;10.63;5.22;;;1.90;99.90;;;;;;5023769;28;20029;-73
2022/11/25 06:49:55;;;;;;;11.25;5.75;;;2.00;99.90;;;;;;5023639;28;20030;-73
2022/11/25 06:52:21;;;;;;;9.38;5.70;;;2.00;99.90;;;;;;5005834;28;20031;-73
2022/11/25 06:54:46;;;;;;;11.77;5.88;;;2.10;99.90;;;;;;5023023;28;20033;-73
2022/11/25 06:57:16;;;;;;;15.20;7.05;;;2.10;99.90;;;;;;5005119;28;20026;-73
2022/11/25 06:59:42;;;;;;;13.82;6.60;;;2.10;99.90;;;;;;5004852;28;20036;-73
2022/11/25 07:02:12;;;;;;;12.45;7.43;;;2.10;99.90;;;;;;5003950;28;20030;-73
2022/11/25 07:04:39;;;;;;;11.45;7.05;;;2.10;99.90;;;;;;5002807;28;20492;-74
2022/11/25 07:07:05;;;;;;;9.77;7.00;;;2.10;99.90;;;;;;5004348;28;20026;-74
2022/11/25 07:09:31;;;;;;;16.02;7.40;;;2.20;99.90;;;;;;5003491;28;20032;-74
2022/11/25 07:11:56;;;;;;;17.58;6.63;;;2.10;99.90;;;;;;5005576;28;20026;-74
2022/11/25 07:14:22;;;;;;;8.65;5.28;;;2.20;99.90;;;;;;5023224;28;20382;-74
2022/11/25 07:16:48;;;;;;;8.90;5.45;;;2.20;99.90;;;;;;5006560;28;20461;-73
2022/11/25 07:19:17;;;;;;;12.05;5.43;;;2.20;99.90;;;;;;5003360;28;20466;-73
2022/11/25 07:21:44;;;;;;;14.05;6.70;;;2.20;99.90;;;;;;5004424;28;20085;-74
2022/11/25 07:24:12;;;;;;;11.52;6.53;;;2.30;99.90;;;;;;5020908;28;20038;-74
2022/11/25 07:26:39;;;;;;;12.00;4.90;;;2.30;99.90;;;;;;5003519;28;20033;-74
2022/11/25 07:29:09;;;;;;;8.10;4.30;;;2.40;99.90;;;;;;5021918;28;20030;-74
2022/11/25 07:31:40;;;;;;;8.10;4.32;;;2.40;99.90;;;;;;5004594;28;20117;-74
2022/11/25 07:34:08;;;;;;;11.63;5.32;;;2.40;99.90;;;;;;5005717;28;20025;-74
2022/11/25 07:36:35;;;;;;;14.33;6.53;;;2.40;99.90;;;;;;5022439;28;20022;-74
2022/11/25 07:39:04;;;;;;;16.83;6.90;;;2.50;99.90;;;;;;5021886;28;20040;-74
2022/11/25 07:41:30;;;;;;;15.25;7.63;;;2.60;99.90;;;;;;5004260;28;20056;-74
2022/11/25 07:44:01;;;;;;;19.48;6.85;;;2.60;99.90;;;;;;5004538;28;20030;-74
2022/11/25 07:46:29;;;;;;;12.00;6.75;;;2.60;99.90;;;;;;5005066;28;20409;-74
2022/11/25 07:49:00;;;;;;;9.05;6.57;;;2.70;99.90;;;;;;5019920;28;20030;-74
2022/11/25 07:51:29;;;;;;;18.48;6.55;;;2.80;99.90;;;;;;5019465;28;20120;-74
2022/11/25 07:53:56;;;;;;;;;;;3.10;99.90;;;;;;5004723;28;20111;-75
2022/11/25 07:56:22;;;;;;;11.85;5.97;;;3.50;99.90;;;;;;5002224;28;20003;-74
2022/11/25 07:58:48;;;;;;;18.73;6.63;;;3.90;99.90;;;;;;4997646;28;20034;-75
2022/11/25 08:01:16;;;;;;;10.15;5.45;;;4.40;99.90;;;;;;5003872;28;20025;-75
2022/11/25 08:03:43;;;;;;;12.07;5.13;;;4.80;99.90;;;;;;5018528;28;20034;-75
2022/11/25 08:06:15;;;;;;;11.68;3.50;;;5.20;99.90;;;;;;4999263;28;20477;-75
2022/11/25 08:08:42;;;;;;;8.02;3.53;;;5.70;99.90;;;;;;4998733;28;20033;-75
2022/11/25 08:11:10;;;;;;;11.63;3.75;;;6.20;99.90;;;;;;4996553;28;20477;-75
2022/11/25 08:13:37;;;;;;;8.55;2.88;;;6.70;99.90;;;;;;5014815;28;20030;-76
2022/11/25 08:16:03;;;;;;;7.00;2.97;;;7.20;99.90;;;;;;4997309;28;20116;-76
2022/11/25 08:18:29;;;;;;;5.38;2.00;;;7.70;99.90;;;;;;5015555;28;20030;-75
2022/11/25 08:21:03;;;;;;;8.68;3.03;;;8.30;99.90;;;;;;5012565;28;20057;-76
2022/11/25 08:23:30;;;;;;;6.65;2.80;;;8.80;99.90;;;;;;5013912;28;20034;-76
2022/11/25 08:25:56;;;;;;;5.50;2.00;;;9.10;99.90;;;;;;4996137;28;20022;-75
2022/11/25 08:28:22;;;;;;;4.28;2.25;;;9.60;99.90;;;;;;4995930;28;20446;-74
2022/11/25 08:30:47;;;;;;;7.00;2.47;;;9.90;99.90;;;;;;5014377;28;20552;-75
2022/11/25 08:33:13;;;;;;;6.65;2.08;;;9.90;99.90;;;;;;5017737;28;20025;-75
2022/11/25 08:35:39;;;;;;;5.07;2.35;;;10.10;99.90;;;;;;4999979;28;20026;-75
2022/11/25 08:38:07;;;;;;;9.88;2.53;;;10.40;99.90;;;;;;5018617;28;20037;-74
2022/11/25 08:40:34;;;;;;;4.00;2.13;;;10.60;99.90;;;;;;5013687;28;20073;-75
2022/11/25 08:43:01;;;;;;;4.18;1.42;;;11.20;99.90;;;;;;4995897;28;20034;-76
2022/11/25 08:45:27;;;;;;;5.88;1.60;;;11.50;99.90;;;;;;4996104;28;20025;-76
2022/11/25 08:47:53;;;;;;;3.58;1.42;;;11.60;99.90;;;;;;4999070;28;20026;-76
2022/11/25 08:50:20;;;;;;;4.93;1.60;;;11.90;99.90;;;;;;4999333;28;20026;-76
2022/11/25 08:52:46;;;;;;;2.92;1.25;;;12.20;99.90;;;;;;4999437;28;20034;-76
2022/11/25 08:55:12;;;;;;;3.80;1.23;;;12.60;99.90;;;;;;4999304;28;20037;-76
2022/11/25 08:57:37;;;;;;;3.17;1.42;;;12.80;99.90;;;;;;5016642;28;20041;-76
2022/11/25 09:00:07;;;;;;;4.97;2.10;;;13.10;99.90;;;;;;5017216;28;20025;-76
2022/11/25 09:02:33;;;;;;;5.53;1.90;;;13.20;99.90;;;;;;4999135;28;20030;-76
2022/11/25 09:04:59;;;;;;;4.97;1.90;;;13.40;99.90;;;;;;4999265;28;20037;-77
2022/11/25 09:07:24;;;;;;;4.63;1.95;;;13.50;99.90;;;;;;4999212;28;20034;-77
2022/11/25 09:09:50;;;;;;;3.10;1.40;;;13.80;99.90;;;;;;4999446;28;20029;-76
2022/11/25 09:12:16;;;;;;;2.78;1.25;;;14.00;99.90;;;;;;5016770;28;20021;-76
2022/11/25 09:14:41;;;;;;;4.28;1.42;;;14.30;99.90;;;;;;5016939;28;20034;-77
2022/11/25 09:17:09;;;;;;;3.35;0.98;;;14.60;99.60;;;;;;4998878;28;20033;-77
2022/11/25 09:19:35;;;;;;;3.08;0.95;;;14.90;98.50;;;;;;5016467;28;20421;-77
2022/11/25 09:22:01;;;;;;;9.35;5.15;;;15.30;97.40;;;;;;5015872;28;20061;-77
2022/11/25 09:24:26;;;;;;;8.10;2.78;;;15.30;96.00;;;;;;4998883;28;20040;-77
2022/11/25 09:26:53;;;;;;;3.20;1.40;;;15.50;96.10;;;;;;5015122;28;20056;-77
2022/11/25 09:29:19;;;;;;;4.53;1.13;;;15.70;95.30;;;;;;5016932;28;20030;-77
2022/11/25 09:31:45;;;;;;;2.95;1.25;;;15.80;95.00;;;;;;4998638;28;20428;-77
2022/11/25 09:34:10;;;;;;;3.53;1.38;;;15.90;94.20;;;;;;5016389;28;20038;-77
2022/11/25 09:36:36;;;;;;;3.28;0.98;;;16.00;93.80;;;;;;5015791;28;20485;-76
2022/11/25 09:39:02;;;;;;;3.92;1.30;;;15.90;93.40;;;;;;5016117;28;20133;-77
2022/11/25 09:47:57;;;;;;;3.35;1.50;;;15.20;93.90;;;;;;5016186;28;20044;-77
2022/11/25 09:50:40;;;;;;;3.15;1.30;;;14.70;94.80;;;;;;5014479;28;20045;-76
2022/11/25 09:53:31;;;;;;;4.57;1.20;;;14.40;96.00;;;;;;5014654;28;20065;-76
2022/11/25 09:56:01;;;;;;;5.28;1.40;;;14.20;96.50;;;;;;5014665;28;20026;-77
2022/11/25 09:59:05;;;;;;;5.03;1.27;;;14.10;96.80;;;;;;4997510;28;20172;-77
2022/11/25 10:01:33;;;;;;;5.38;1.23;;;14.20;97.80;;;;;;4974990;28;20065;-77
2022/11/25 10:04:14;;;;;;;3.17;1.10;;;14.40;97.40;;;;;;4997761;28;20079;-77
2022/11/25 10:06:49;;;;;;;5.25;1.05;;;14.50;97.30;;;;;;4998533;28;20041;-77
2022/11/25 10:09:20;;;;;;;4.00;1.27;;;14.60;96.90;;;;;;4998359;28;20080;-77
2022/11/25 10:11:53;;;;;;;2.85;0.80;;;14.80;97.10;;;;;;4998114;28;20121;-77
2022/11/25 10:14:47;;;;;;;2.08;0.80;;;14.90;96.30;;;;;;4997629;28;20072;-77
2022/11/25 10:17:17;;;;;;;1.45;0.57;;;14.80;95.90;;;;;;4997888;28;20445;-77
2022/11/25 10:20:12;;;;;;;4.82;1.17;;;14.60;95.80;;;;;;5013779;28;20476;-76
2022/11/25 10:22:58;;;;;;;3.80;0.77;;;14.60;97.10;;;;;;4984690;28;20398;-77
2022/11/25 10:25:28;;;;;;;4.78;1.20;;;14.60;97.60;;;;;;4997197;28;20041;-77
2022/11/25 10:28:19;;;;;;;4.72;0.95;;;14.60;97.70;;;;;;5014842;28;20097;-77
2022/11/25 10:31:20;;;;;;;4.80;1.88;;;14.70;96.30;;;;;;4997588;28;20034;-77
2022/11/25 10:33:53;;;;;;;3.70;1.35;;;14.90;96.70;;;;;;5002236;28;20049;-77
2022/11/25 10:36:21;;;;;;;4.20;0.85;;;15.00;96.30;;;;;;4997973;28;20032;-77
2022/11/25 10:39:06;;;;;;;3.87;1.00;;;15.20;96.00;;;;;;5014595;28;20076;-77
2022/11/25 10:41:37;;;;;;;5.10;0.82;;;15.80;95.10;;;;;;4997258;28;20109;-77
2022/11/25 10:44:04;;;;;;;5.47;0.70;;;16.10;94.10;;;;;;4997376;28;20029;-76
2022/11/25 10:46:30;;;;;;;4.53;1.60;;;16.60;93.00;;;;;;4997407;28;20466;-76
2022/11/25 10:48:56;;;;;;;3.72;0.80;;;17.40;90.20;;;;;;4997223;28;20032;-77
2022/11/25 10:51:33;;;;;;;3.13;1.05;;;18.00;89.20;;;;;;4997121;28;20030;-76
2022/11/25 10:54:21;;;;;;;3.58;1.30;;;18.50;84.30;;;;;;4997023;28;20026;-76
2022/11/25 10:56:49;;;;;;;5.85;0.77;;;18.30;78.80;;;;;;4996792;28;20040;-77
2022/11/25 10:59:25;;;;;;;3.58;0.93;;;18.60;77.30;;;;;;4997163;28;20033;-77
2022/11/25 11:01:52;;;;;;;1.65;0.57;;;19.20;76.90;;;;;;4997230;28;20469;-77
2022/11/25 11:04:19;;;;;;;2.75;1.05;;;19.70;73.30;;;;;;4996805;28;20572;-77
2022/11/25 11:06:48;;;;;;;2.63;1.05;;;19.70;72.40;;;;;;4997628;28;20405;-77
2022/11/25 11:09:32;;;;;;;2.80;0.60;;;19.10;70.10;;;;;;4996500;28;20159;-77
2022/11/25 11:12:13;;;;;;;5.30;1.10;;;18.60;72.90;;;;;;5014074;28;20026;-77
2022/11/25 11:14:38;;;;;;;6.82;0.90;;;18.80;72.80;;;;;;4996968;28;20064;-76
2022/11/25 11:17:04;;;;;;;7.10;1.15;;;19.00;68.80;;;;;;4996721;28;20030;-77
2022/11/25 11:19:30;;;;;;;4.18;0.80;;;19.50;67.30;;;;;;5014518;28;20101;-77
2022/11/25 11:22:13;;;;;;;4.10;0.95;;;20.10;67.20;;;;;;5014842;28;20046;-77
2022/11/25 11:24:41;;;;;;;3.58;0.80;;;20.40;64.20;;;;;;5014355;28;20034;-77
2022/11/25 11:27:23;;;;;;;8.35;1.63;;;20.60;64.10;;;;;;5014211;28;20054;-77
2022/11/25 11:30:08;;;;;;;6.32;0.95;;;20.30;63.90;;;;;;4996589;28;20080;-76
2022/11/25 11:32:34;;;;;;;7.53;1.20;;;19.40;64.20;;;;;;5014471;28;20034;-77
2022/11/25 11:35:24;;;;;;;5.82;0.95;;;18.20;64.20;;;;;;4997040;28;20026;-77
2022/11/25 11:37:58;;;;;;;7.93;0.90;;;17.00;70.40;;;;;;4996062;28;20040;-76
2022/11/25 11:40:45;;;;;;;8.52;1.48;;;16.00;73.80;;;;;;4996187;28;20026;-76
2022/11/25 11:43:46;;;;;;;6.85;1.33;;;15.80;76.40;;;;;;4996742;28;20073;-76
2022/11/25 11:46:39;;;;;;;3.78;0.90;;;16.50;75.20;;;;;;5003255;28;20038;-76
2022/11/25 11:49:25;;;;;;;13.02;1.70;;;17.20;73.40;;;;;;5005470;28;20374;-77
2022/11/25 11:52:09;;;;;;;5.47;0.90;;;17.30;70.20;;;;;;4996502;28;20026;-77
2022/11/25 11:55:16;;;;;;;4.60;1.10;;;17.70;69.10;;;;;;5012602;28;20493;-76
2022/11/25 11:57:58;;;;;;;5.47;1.30;;;17.90;66.00;;;;;;4966257;28;20076;-76
2022/11/25 12:00:25;;;;;;;8.35;1.60;;;18.30;66.30;;;;;;4996549;28;20033;-76
2022/11/25 12:02:54;;;;;;;5.75;0.90;;;18.40;63.30;;;;;;5013970;28;20032;-76
2022/11/25 12:05:25;;;;;;;5.18;1.67;;;18.90;64.30;;;;;;5014126;28;20111;-76
2022/11/25 12:08:03;;;;;;;6.32;1.60;;;19.00;64.20;;;;;;5013600;28;20084;-76
2022/11/25 12:10:37;;;;;;;10.45;2.05;;;18.60;64.90;;;;;;4996178;28;20493;-76
2022/11/25 12:13:18;;;;;;;11.57;2.20;;;17.50;66.50;;;;;;4996151;28;20117;-76
2022/11/25 12:15:55;;;;;;;6.22;1.85;;;17.60;68.60;;;;;;4996240;28;20057;-76
2022/11/25 12:18:39;;;;;;;9.73;2.55;;;17.70;68.10;;;;;;4996084;28;20030;-76
2022/11/25 12:21:18;;;;;;;9.25;2.20;;;17.80;68.80;;;;;;4996480;28;20072;-76
2022/11/25 12:24:05;;;;;;;7.10;2.05;;;17.10;70.40;;;;;;5000052;28;20366;-76
2022/11/25 12:26:50;;;;;;;8.52;2.53;;;17.50;71.00;;;;;;5017507;28;20142;-76
2022/11/25 12:29:51;;;;;;;6.53;2.72;;;18.30;68.90;;;;;;5016186;28;20022;-76
2022/11/25 12:32:20;;;;;;;9.63;5.15;;;18.50;67.50;;;;;;4999792;28;20022;-76
2022/11/25 12:35:26;;;;;;;8.63;4.90;;;17.90;69.10;;;;;;5015970;28;20018;-76
2022/11/25 12:38:13;;;;;;;12.23;4.93;;;17.80;70.10;;;;;;4977462;28;20041;-76
2022/11/25 12:41:07;;;;;;;9.27;4.20;;;17.40;72.70;;;;;;5017024;28;20030;-76
2022/11/25 12:44:12;;;;;;;12.27;4.90;;;16.90;72.10;;;;;;4999431;28;20034;-76
2022/11/25 12:46:45;;;;;;;16.40;4.70;;;16.50;75.00;;;;;;5015823;28;20046;-75
2022/11/25 12:49:23;;;;;;;7.65;3.83;;;16.10;77.00;;;;;;4999327;28;20056;-76
2022/11/25 12:52:18;;;;;;;13.45;4.38;;;15.70;78.20;;;;;;4999674;28;20088;-76
2022/11/25 12:54:44;;;;;;;16.95;5.65;;;15.00;80.30;;;;;;5015952;28;20026;-75
2022/11/25 12:57:38;;;;;;;14.45;6.07;;;14.70;82.40;;;;;;4999190;28;20026;-76
2022/11/25 13:00:25;;;;;;;11.75;6.18;;;14.50;83.80;;;;;;5017033;28;20026;-76
2022/11/25 13:03:33;;;;;;;7.93;4.97;;;14.70;84.80;;;;;;5016801;28;20030;-76
2022/11/25 13:06:27;;;;;;;12.20;4.97;;;15.00;83.40;;;;;;5016853;28;20034;-76
2022/11/25 13:09:25;;;;;;;15.57;5.70;;;15.10;83.90;;;;;;4999173;28;20406;-76
2022/11/25 13:11:54;;;;;;;9.80;4.70;;;15.60;83.50;;;;;;4999020;28;20048;-76
2022/11/25 13:14:41;;;;;;;11.57;5.30;;;15.80;81.50;;;;;;5015387;28;20597;-76
2022/11/25 13:17:13;;;;;;;9.10;4.13;;;15.80;80.60;;;;;;5016340;28;20331;-77
2022/11/25 13:19:39;;;;;;;14.43;4.35;;;15.80;82.40;;;;;;5016293;28;20025;-75
2022/11/25 13:22:25;;;;;;;13.02;4.70;;;15.90;82.60;;;;;;5016268;28;20101;-75
2022/11/25 13:24:52;;;;;;;11.10;4.60;;;15.80;82.10;;;;;;5016177;28;20033;-75
2022/11/25 13:27:53;;;;;;;13.73;4.97;;;15.30;82.70;;;;;;5016054;28;20037;-75
2022/11/25 13:30:30;;;;;;;17.58;6.22;;;14.90;84.30;;;;;;5016074;28;20100;-75
2022/11/25 13:32:57;;;;;;;17.38;4.28;;;14.50;86.60;;;;;;5014446;28;20548;-75
2022/11/25 13:35:25;;;;;;;12.30;5.43;;;14.30;88.40;;;;;;4998419;28;20075;-76
2022/11/25 13:37:51;;;;;;;15.30;5.00;;;13.90;90.40;;;;;;4996726;28;20049;-78
2022/11/25 13:40:33;;;;;;;8.73;3.88;;;13.40;91.20;;;;;;4981276;28;20034;-74
2022/11/25 13:43:01;;;;;;;14.60;4.35;;;13.00;92.80;;;;;;4985316;28;20025;-75
2022/11/25 13:45:33;;;;;;;13.30;3.70;;;12.60;94.40;;;;;;4998332;28;20486;-74